createdAt,value
2023-03-18T00:01:11.473Z,101618.28
2023-03-18T00:03:40.782Z,101601.47
2023-03-18T00:06:16.043Z,101607.34
2023-03-18T00:08:45.475Z,101610.69
2023-03-18T00:11:14.709Z,101627.22
2023-03-18T00:13:42.653Z,101616.97
2023-03-18T00:16:11.605Z,101616.25
2023-03-18T00:18:40.410Z,101606.22
2023-03-18T00:21:08.628Z,101606.72
2023-03-18T00:23:37.220Z,101622.44
2023-03-18T00:26:05.601Z,101620.66
2023-03-18T00:28:33.612Z,101630.09
2023-03-18T00:31:09.262Z,101619.38
2023-03-18T00:33:38.290Z,101620.75
2023-03-18T00:36:10.406Z,101620.84
2023-03-18T00:38:38.186Z,101624.25
2023-03-18T00:41:11.781Z,101622.00
2023-03-18T00:43:52.853Z,101626.97
2023-03-18T00:46:32.347Z,101627.72
2023-03-18T00:49:05.273Z,101623.25
2023-03-18T00:51:34.554Z,101607.13
2023-03-18T00:54:07.382Z,101608.56
2023-03-18T00:56:37.759Z,101605.78
2023-03-18T00:59:06.530Z,101622.41
2023-03-18T01:01:34.405Z,101616.50
2023-03-18T01:04:04.593Z,101613.09
2023-03-18T01:06:34.179Z,101620.88
2023-03-18T01:09:02.754Z,101629.75
2023-03-18T01:11:30.769Z,101620.06
2023-03-18T01:13:59.718Z,101634.28
2023-03-18T01:16:27.613Z,101631.56
2023-03-18T01:18:55.512Z,101639.69
2023-03-18T01:21:23.121Z,101625.34
2023-03-18T01:23:55.375Z,101627.63
2023-03-18T01:26:23.838Z,101626.41
2023-03-18T01:28:52.575Z,101633.16
2023-03-18T01:31:20.688Z,101636.88
2023-03-18T01:33:49.220Z,101640.19
2023-03-18T01:36:17.677Z,101641.31
2023-03-18T01:38:56.440Z,101642.59
2023-03-18T01:41:28.904Z,101633.84
2023-03-18T01:43:56.654Z,101653.22
2023-03-18T01:46:43.666Z,101655.72
2023-03-18T01:49:26.147Z,101649.31
2023-03-18T01:52:22.653Z,101657.84
2023-03-18T01:55:04.693Z,101656.41
2023-03-18T01:57:35.961Z,101660.53
2023-03-18T02:00:04.940Z,101667.13
2023-03-18T02:02:42.790Z,101663.94
2023-03-18T02:05:13.467Z,101667.91
2023-03-18T02:07:42.984Z,101671.84
2023-03-18T02:10:13.766Z,101662.66
2023-03-18T02:12:45.717Z,101661.13
2023-03-18T02:15:21.531Z,101680.06
2023-03-18T02:18:10.758Z,101676.63
2023-03-18T02:20:55.812Z,101686.63
2023-03-18T02:23:27.185Z,101684.66
2023-03-18T02:26:10.864Z,101678.47
2023-03-18T02:28:38.424Z,101684.13
2023-03-18T02:31:07.079Z,101679.81
2023-03-18T02:33:39.527Z,101677.34
2023-03-18T02:36:12.846Z,101684.16
2023-03-18T02:38:45.858Z,101670.88
2023-03-18T02:41:28.777Z,101682.25
2023-03-18T02:43:57.477Z,101683.56
2023-03-18T02:46:33.134Z,101672.34
2023-03-18T02:49:01.712Z,101678.75
2023-03-18T02:51:31.171Z,101692.00
2023-03-18T02:54:08.562Z,101684.81
2023-03-18T02:56:38.621Z,101686.19
2023-03-18T02:59:07.751Z,101691.59
2023-03-18T03:01:35.938Z,101691.34
2023-03-18T03:04:04.162Z,101696.97
2023-03-18T03:06:34.039Z,101685.63
2023-03-18T03:09:03.138Z,101687.13
2023-03-18T03:11:31.338Z,101686.13
2023-03-18T03:14:07.322Z,101693.06
2023-03-18T03:16:37.064Z,101689.34
2023-03-18T03:19:06.071Z,101685.66
2023-03-18T03:21:36.116Z,101690.69
2023-03-18T03:24:04.686Z,101686.13
2023-03-18T03:26:37.461Z,101698.19
2023-03-18T03:29:07.564Z,101685.47
2023-03-18T03:31:35.473Z,101685.47
2023-03-18T03:34:06.779Z,101688.44
2023-03-18T03:36:34.364Z,101695.22
2023-03-18T03:39:04.288Z,101683.88
2023-03-18T03:41:35.791Z,101697.75
2023-03-18T03:44:03.555Z,101694.66
2023-03-18T03:46:31.439Z,101693.34
2023-03-18T03:48:59.916Z,101689.09
2023-03-18T03:51:29.556Z,101688.03
2023-03-18T03:53:57.194Z,101694.38
2023-03-18T03:56:27.353Z,101694.66
2023-03-18T03:58:55.027Z,101702.59
2023-03-18T04:01:27.349Z,101698.53
2023-03-18T04:03:58.751Z,101708.19
2023-03-18T04:06:26.557Z,101696.09
2023-03-18T04:09:02.193Z,101703.91
2023-03-18T04:11:30.608Z,101704.69
2023-03-18T04:13:58.163Z,101714.50
2023-03-18T04:16:28.620Z,101702.38
2023-03-18T04:18:56.307Z,101701.06
2023-03-18T04:21:24.790Z,101694.47
2023-03-18T04:23:55.042Z,101710.75
2023-03-18T04:26:23.317Z,101704.88
2023-03-18T04:28:57.903Z,101714.72
2023-03-18T04:31:26.213Z,101719.69
2023-03-18T04:33:54.424Z,101722.72
2023-03-18T04:36:24.358Z,101723.72
2023-03-18T04:38:52.140Z,101726.97
2023-03-18T04:41:22.864Z,101728.41
2023-03-18T04:43:50.914Z,101727.88
2023-03-18T04:46:18.909Z,101728.47
2023-03-18T04:48:49.561Z,101736.00
2023-03-18T04:51:17.689Z,101734.94
2023-03-18T04:53:50.074Z,101737.25
2023-03-18T04:56:18.834Z,101737.34
2023-03-18T04:58:50.981Z,101734.03
2023-03-18T05:01:23.564Z,101737.09
2023-03-18T05:03:51.883Z,101737.44
2023-03-18T05:06:27.868Z,101740.72
2023-03-18T05:08:59.066Z,101747.09
2023-03-18T05:11:30.878Z,101742.81
2023-03-18T05:14:03.587Z,101748.94
2023-03-18T05:16:41.216Z,101729.66
2023-03-18T05:19:10.886Z,101748.56
2023-03-18T05:21:45.670Z,101755.69
2023-03-18T05:24:16.501Z,101746.84
2023-03-18T05:26:51.695Z,101753.03
2023-03-18T05:29:24.458Z,101758.41
2023-03-18T05:32:04.691Z,101753.84
2023-03-18T05:34:37.999Z,101752.31
2023-03-18T05:37:11.106Z,101757.94
2023-03-18T05:39:45.033Z,101745.31
2023-03-18T05:42:16.523Z,101757.06
2023-03-18T05:44:48.694Z,101759.59
2023-03-18T05:47:21.905Z,101770.34
2023-03-18T05:50:13.854Z,101762.59
2023-03-18T05:52:45.682Z,101782.97
2023-03-18T05:55:20.174Z,101783.91
2023-03-18T05:57:49.880Z,101789.78
2023-03-18T06:00:19.606Z,101784.38
2023-03-18T06:02:50.546Z,101795.66
2023-03-18T06:05:19.574Z,101794.19
2023-03-18T06:07:48.060Z,101799.31
2023-03-18T06:10:17.394Z,101800.91
2023-03-18T06:12:48.391Z,101800.53
2023-03-18T06:15:23.959Z,101809.44
2023-03-18T06:17:53.177Z,101799.97
2023-03-18T06:20:22.572Z,101802.13
2023-03-18T06:22:51.987Z,101805.81
2023-03-18T06:25:22.025Z,101813.19
2023-03-18T06:27:50.988Z,101814.97
2023-03-18T06:30:25.560Z,101820.72
2023-03-18T06:32:57.679Z,101814.84
2023-03-18T06:35:32.632Z,101817.00
2023-03-18T06:38:01.804Z,101818.38
2023-03-18T06:40:32.024Z,101823.38
2023-03-18T06:43:01.807Z,101825.72
2023-03-18T06:45:38.281Z,101819.53
2023-03-18T06:48:08.801Z,101814.03
2023-03-18T06:50:41.016Z,101822.78
2023-03-18T06:53:19.929Z,101819.75
2023-03-18T06:55:49.924Z,101820.19
2023-03-18T06:58:22.336Z,101814.25
2023-03-18T07:01:01.874Z,101822.88
2023-03-18T07:03:36.510Z,101818.06
2023-03-18T07:06:08.181Z,101821.31
2023-03-18T07:08:39.998Z,101828.78
2023-03-18T07:11:08.930Z,101837.19
2023-03-18T07:13:40.635Z,101831.03
2023-03-18T07:16:15.996Z,101832.28
2023-03-18T07:18:46.611Z,101835.63
2023-03-18T07:21:22.943Z,101829.38
2023-03-18T07:23:52.650Z,101837.09
2023-03-18T07:26:23.323Z,101832.69
2023-03-18T07:28:52.471Z,101833.53
2023-03-18T07:31:21.033Z,101830.09
2023-03-18T07:33:50.504Z,101843.44
2023-03-18T07:36:20.026Z,101830.94
2023-03-18T07:38:48.479Z,101831.03
2023-03-18T07:41:17.215Z,101827.63
2023-03-18T07:43:45.533Z,101838.53
2023-03-18T07:46:14.001Z,101843.50
2023-03-18T07:48:43.425Z,101839.09
2023-03-18T07:51:12.247Z,101841.75
2023-03-18T07:53:40.247Z,101844.03
2023-03-18T07:56:08.765Z,101854.69
2023-03-18T07:58:39.128Z,101862.16
2023-03-18T08:01:08.000Z,101855.59
2023-03-18T08:03:36.301Z,101857.66
2023-03-18T08:06:05.127Z,101855.66
2023-03-18T08:08:34.173Z,101861.78
2023-03-18T08:11:06.891Z,101866.06
2023-03-18T08:13:39.132Z,101856.69
2023-03-18T08:16:07.898Z,101862.44
2023-03-18T08:18:37.506Z,101846.75
2023-03-18T08:21:08.142Z,101869.66
2023-03-18T08:23:36.285Z,101872.66
2023-03-18T08:26:05.037Z,101874.94
2023-03-18T08:28:36.329Z,101867.13
2023-03-18T08:31:11.412Z,101879.34
2023-03-18T08:33:39.705Z,101866.53
2023-03-18T08:36:08.856Z,101872.56
2023-03-18T08:38:39.555Z,101870.97
2023-03-18T08:41:08.316Z,101872.09
2023-03-18T08:43:38.583Z,101876.53
2023-03-18T08:46:07.721Z,101874.84
2023-03-18T08:48:36.999Z,101865.50
2023-03-18T08:51:08.559Z,101876.38
2023-03-18T08:53:38.753Z,101864.16
2023-03-18T08:56:08.108Z,101875.78
2023-03-18T08:58:36.676Z,101880.69
2023-03-18T09:01:09.567Z,101883.72
2023-03-18T09:03:40.245Z,101880.75
2023-03-18T09:06:08.834Z,101878.63
2023-03-18T09:08:37.042Z,101888.00
2023-03-18T09:11:06.043Z,101886.38
2023-03-18T09:13:34.439Z,101884.59
2023-03-18T09:16:08.506Z,101869.13
2023-03-18T09:18:37.661Z,101889.66
2023-03-18T09:21:06.579Z,101894.00
2023-03-18T09:23:35.723Z,101892.06
2023-03-18T09:26:04.689Z,101899.31
2023-03-18T09:28:37.543Z,101886.38
2023-03-18T09:31:06.589Z,101894.78
2023-03-18T09:33:37.410Z,101886.09
2023-03-18T09:36:07.137Z,101886.22
2023-03-18T09:38:35.644Z,101885.72
2023-03-18T09:41:08.834Z,101886.81
2023-03-18T09:44:08.781Z,101887.53
2023-03-18T09:46:47.471Z,101886.34
2023-03-18T09:49:34.389Z,101884.47
2023-03-18T09:52:19.557Z,101886.66
2023-03-18T09:55:29.219Z,101886.06
2023-03-18T09:57:59.611Z,101886.09
2023-03-18T10:00:29.626Z,101887.28
2023-03-18T10:03:06.770Z,101887.25
2023-03-18T10:05:38.599Z,101879.50
2023-03-18T10:08:29.697Z,101886.75
2023-03-18T10:10:57.698Z,101887.47
2023-03-18T10:13:28.694Z,101888.56
2023-03-18T10:15:57.644Z,101881.84
2023-03-18T10:18:36.554Z,101890.09
2023-03-18T10:21:22.651Z,101883.69
2023-03-18T10:24:05.693Z,101884.72
2023-03-18T10:26:42.674Z,101877.16
2023-03-18T10:29:41.230Z,101881.38
2023-03-18T10:32:21.490Z,101872.84
2023-03-18T10:35:01.810Z,101871.13
2023-03-18T10:37:54.425Z,101873.91
2023-03-18T10:40:23.366Z,101876.63
2023-03-18T10:42:51.729Z,101872.69
2023-03-18T10:45:27.827Z,101863.91
2023-03-18T10:48:11.443Z,101853.25
2023-03-18T10:50:46.772Z,101851.34
2023-03-18T10:53:51.454Z,101863.69
2023-03-18T10:56:19.882Z,101858.38
2023-03-18T10:58:49.190Z,101853.53
2023-03-18T11:01:19.819Z,101849.94
2023-03-18T11:03:52.149Z,101845.38
2023-03-18T11:06:25.754Z,101841.34
2023-03-18T11:09:03.222Z,101833.91
2023-03-18T11:11:34.864Z,101837.34
2023-03-18T11:14:04.658Z,101832.06
2023-03-18T11:17:19.173Z,101832.06
2023-03-18T11:19:49.197Z,101819.63
2023-03-18T11:22:24.180Z,101821.19
2023-03-18T11:25:12.827Z,101830.19
2023-03-18T11:27:49.590Z,101824.47
2023-03-18T11:30:37.717Z,101831.91
2023-03-18T11:33:13.311Z,101832.91
2023-03-18T11:35:52.371Z,101838.47
2023-03-18T11:38:29.670Z,101831.47
2023-03-18T11:41:11.510Z,101836.19
2023-03-18T11:43:42.298Z,101833.34
2023-03-18T11:46:13.732Z,101839.31
2023-03-18T11:48:42.726Z,101838.47
2023-03-18T11:51:25.852Z,101832.47
2023-03-18T11:53:54.643Z,101833.03
2023-03-18T11:56:33.661Z,101829.53
2023-03-18T11:59:32.166Z,101824.50
2023-03-18T12:02:37.853Z,101824.63
2023-03-18T12:05:39.523Z,101829.34
2023-03-18T12:08:15.230Z,101839.16
2023-03-18T12:10:49.008Z,101835.88
2023-03-18T12:13:29.982Z,101825.44
2023-03-18T12:16:06.748Z,101823.66
2023-03-18T12:18:47.689Z,101820.94
2023-03-18T12:21:37.010Z,101819.09
2023-03-18T12:24:23.303Z,101818.66
2023-03-18T12:26:53.515Z,101817.88
2023-03-18T12:29:50.418Z,101807.91
2023-03-18T12:32:38.342Z,101827.00
2023-03-18T12:35:21.995Z,101825.59
2023-03-18T12:37:59.831Z,101829.00
2023-03-18T12:40:38.286Z,101825.56
2023-03-18T12:43:38.064Z,101824.56
2023-03-18T12:46:40.539Z,101815.19
2023-03-18T12:49:30.228Z,101819.59
2023-03-18T12:52:06.982Z,101826.00
2023-03-18T12:54:41.785Z,101828.00
2023-03-18T12:57:23.952Z,101817.03
2023-03-18T12:59:56.978Z,101823.88
2023-03-18T13:02:45.228Z,101820.56
2023-03-18T13:05:46.241Z,101815.75
2023-03-18T13:08:41.151Z,101826.31
2023-03-18T13:11:12.285Z,101824.75
2023-03-18T13:13:40.534Z,101829.34
2023-03-18T13:16:09.716Z,101823.00
2023-03-18T13:18:51.787Z,101828.75
2023-03-18T13:21:30.830Z,101820.47
2023-03-18T13:24:32.806Z,101830.19
2023-03-18T13:27:28.847Z,101829.19
2023-03-18T13:30:00.113Z,101827.34
2023-03-18T13:32:28.141Z,101825.63
2023-03-18T13:35:28.588Z,101824.03
2023-03-18T13:38:05.014Z,101816.59
2023-03-18T13:41:04.642Z,101832.63
2023-03-18T13:43:40.712Z,101828.19
2023-03-18T13:46:35.159Z,101830.69
2023-03-18T13:49:16.862Z,101824.47
2023-03-18T13:51:49.960Z,101823.69
2023-03-18T13:54:19.524Z,101821.66
2023-03-18T13:56:52.957Z,101825.88
2023-03-18T13:59:34.031Z,101825.72
2023-03-18T14:02:29.562Z,101825.19
2023-03-18T14:05:00.534Z,101827.25
2023-03-18T14:07:28.699Z,101824.53
2023-03-18T14:10:17.943Z,101832.91
2023-03-18T14:12:48.371Z,101825.94
2023-03-18T14:15:16.459Z,101838.00
2023-03-18T14:17:49.342Z,101839.22
2023-03-18T14:20:17.840Z,101831.09
2023-03-18T14:22:56.171Z,101837.97
2023-03-18T14:25:37.695Z,101836.06
2023-03-18T14:28:10.156Z,101831.91
2023-03-18T14:30:39.396Z,101830.16
2023-03-18T14:33:23.007Z,101844.19
2023-03-18T14:36:00.185Z,101838.41
2023-03-18T14:38:57.002Z,101849.97
2023-03-18T14:41:31.446Z,101846.13
2023-03-18T14:44:34.492Z,101847.91
2023-03-18T14:47:05.266Z,101848.44
2023-03-18T14:49:51.742Z,101849.00
2023-03-18T14:52:25.146Z,101848.72
2023-03-18T14:54:53.278Z,101861.75
2023-03-18T14:57:26.215Z,101868.38
2023-03-18T14:59:59.977Z,101860.53
2023-03-18T15:02:34.319Z,101857.00
2023-03-18T15:05:02.341Z,101872.75
2023-03-18T15:07:34.508Z,101874.31
2023-03-18T15:10:11.437Z,101864.84
2023-03-18T15:12:43.214Z,101879.53
2023-03-18T15:15:15.363Z,101871.97
2023-03-18T15:17:52.819Z,101881.44
2023-03-18T15:20:22.267Z,101882.13
2023-03-18T15:22:50.496Z,101887.19
2023-03-18T15:25:20.974Z,101878.84
2023-03-18T15:27:50.225Z,101886.78
2023-03-18T15:30:29.609Z,101875.97
2023-03-18T15:33:08.410Z,101888.31
2023-03-18T15:35:38.026Z,101888.56
2023-03-18T15:38:12.473Z,101889.09
2023-03-18T15:40:51.988Z,101895.56
2023-03-18T15:43:41.827Z,101897.31
2023-03-18T15:46:27.516Z,101896.38
2023-03-18T15:48:56.261Z,101898.69
2023-03-18T15:51:40.665Z,101895.84
2023-03-18T15:54:22.855Z,101894.75
2023-03-18T15:56:53.303Z,101898.34
2023-03-18T15:59:31.470Z,101896.28
2023-03-18T16:01:59.871Z,101904.03
2023-03-18T16:04:33.103Z,101909.50
2023-03-18T16:07:02.470Z,101904.59
2023-03-18T16:09:31.250Z,101902.63
2023-03-18T16:12:05.503Z,101907.59
2023-03-18T16:14:44.106Z,101906.00
2023-03-18T16:17:17.755Z,101911.63
2023-03-18T16:19:47.661Z,101920.09
2023-03-18T16:22:15.802Z,101910.66
2023-03-18T16:24:44.749Z,101920.44
2023-03-18T16:27:39.707Z,101907.09
2023-03-18T16:30:17.868Z,101922.66
2023-03-18T16:32:47.044Z,101922.06
2023-03-18T16:35:16.288Z,101921.50
2023-03-18T16:37:45.501Z,101931.31
2023-03-18T16:40:20.373Z,101925.25
2023-03-18T16:42:49.278Z,101935.06
2023-03-18T16:45:19.123Z,101930.00
2023-03-18T16:47:52.335Z,101937.97
2023-03-18T16:50:24.879Z,101921.66
2023-03-18T16:52:52.930Z,101936.31
2023-03-18T16:55:21.004Z,101928.47
2023-03-18T16:57:52.762Z,101932.50
2023-03-18T17:00:24.866Z,101930.28
2023-03-18T17:02:54.011Z,101922.56
2023-03-18T17:05:26.572Z,101931.81
2023-03-18T17:07:55.011Z,101931.31
2023-03-18T17:10:24.789Z,101937.84
2023-03-18T17:13:00.093Z,101931.13
2023-03-18T17:15:37.024Z,101926.19
2023-03-18T17:18:07.020Z,101927.19
2023-03-18T17:21:00.381Z,101933.00
2023-03-18T17:23:29.108Z,101934.59
2023-03-18T17:26:01.481Z,101936.06
2023-03-18T17:28:46.508Z,101928.13
2023-03-18T17:31:15.170Z,101930.13
2023-03-18T17:33:43.255Z,101932.22
2023-03-18T17:36:11.938Z,101930.28
2023-03-18T17:38:39.778Z,101928.44
2023-03-18T17:41:19.116Z,101929.44
2023-03-18T17:43:53.004Z,101918.44
2023-03-18T17:46:20.699Z,101927.41
2023-03-18T17:48:49.818Z,101925.19
2023-03-18T17:51:23.845Z,101929.72
2023-03-18T17:53:56.797Z,101922.72
2023-03-18T17:56:24.700Z,101926.84
2023-03-18T17:58:56.758Z,101909.72
2023-03-18T18:01:29.189Z,101920.19
2023-03-18T18:03:58.025Z,101920.16
2023-03-18T18:06:29.953Z,101924.59
2023-03-18T18:09:01.257Z,101923.69
2023-03-18T18:11:35.492Z,101918.91
2023-03-18T18:14:21.946Z,101925.50
2023-03-18T18:16:50.121Z,101923.59
2023-03-18T18:19:23.012Z,101924.81
2023-03-18T18:21:50.793Z,101931.06
2023-03-18T18:24:29.273Z,101930.22
2023-03-18T18:26:57.478Z,101933.41
2023-03-18T18:29:26.703Z,101931.78
2023-03-18T18:31:58.022Z,101928.53
2023-03-18T18:34:25.735Z,101935.00
2023-03-18T18:36:53.305Z,101933.66
2023-03-18T18:39:21.167Z,101942.56
2023-03-18T18:41:49.538Z,101937.56
2023-03-18T18:44:18.439Z,101930.50
2023-03-18T18:46:46.465Z,101941.28
2023-03-18T18:49:22.388Z,101931.00
2023-03-18T18:51:54.836Z,101941.59
2023-03-18T18:54:23.432Z,101936.59
2023-03-18T18:56:53.147Z,101941.59
2023-03-18T18:59:28.816Z,101937.38
2023-03-18T19:01:58.258Z,101933.16
2023-03-18T19:04:25.847Z,101936.25
2023-03-18T19:06:54.037Z,101940.06
2023-03-18T19:09:24.784Z,101937.56
2023-03-18T19:11:53.434Z,101935.38
2023-03-18T19:14:25.710Z,101931.19
2023-03-18T19:16:54.708Z,101934.13
2023-03-18T19:19:25.713Z,101942.41
2023-03-18T19:21:55.457Z,101940.25
2023-03-18T19:24:32.769Z,101941.06
2023-03-18T19:27:02.632Z,101932.75
2023-03-18T19:29:33.146Z,101943.50
2023-03-18T19:32:01.631Z,101935.84
2023-03-18T19:34:31.084Z,101928.78
2023-03-18T19:36:58.804Z,101928.47
2023-03-18T19:39:27.864Z,101926.22
2023-03-18T19:41:58.503Z,101926.59
2023-03-18T19:44:26.635Z,101914.56
2023-03-18T19:46:55.727Z,101921.22
2023-03-18T19:49:32.897Z,101921.47
2023-03-18T19:52:01.451Z,101918.59
2023-03-18T19:54:35.019Z,101915.38
2023-03-18T19:57:07.333Z,101916.56
2023-03-18T19:59:39.896Z,101923.53
2023-03-18T20:02:26.021Z,101921.59
2023-03-18T20:04:55.091Z,101917.88
2023-03-18T20:07:24.145Z,101917.88
2023-03-18T20:09:51.753Z,101920.56
2023-03-18T20:12:29.079Z,101925.00
2023-03-18T20:14:58.744Z,101913.63
2023-03-18T20:17:34.444Z,101908.06
2023-03-18T20:20:06.895Z,101902.47
2023-03-18T20:22:36.632Z,101897.34
2023-03-18T20:25:05.186Z,101904.53
2023-03-18T20:27:34.654Z,101909.78
2023-03-18T20:30:02.237Z,101897.75
2023-03-18T20:32:30.126Z,101896.06
2023-03-18T20:34:57.771Z,101887.25
2023-03-18T20:37:34.653Z,101883.75
2023-03-18T20:40:04.930Z,101886.25
2023-03-18T20:42:32.558Z,101881.69
2023-03-18T20:45:00.159Z,101883.94
2023-03-18T20:47:27.759Z,101880.88
2023-03-18T20:49:56.120Z,101877.56
2023-03-18T20:52:28.602Z,101877.69
2023-03-18T20:54:59.394Z,101874.50
2023-03-18T20:57:32.257Z,101874.00
2023-03-18T20:59:59.908Z,101871.44
2023-03-18T21:02:31.081Z,101869.75
2023-03-18T21:04:59.747Z,101872.22
2023-03-18T21:07:27.777Z,101867.78
2023-03-18T21:09:55.412Z,101856.97
2023-03-18T21:12:23.232Z,101868.13
2023-03-18T21:14:51.278Z,101865.53
2023-03-18T21:17:28.376Z,101861.31
2023-03-18T21:32:51.669Z,101854.34
2023-03-18T21:35:25.875Z,101852.19
2023-03-18T21:37:55.103Z,101848.75
2023-03-18T21:40:23.507Z,101854.25
2023-03-18T21:42:56.838Z,101849.59
2023-03-18T21:45:24.661Z,101839.03
2023-03-18T21:47:53.056Z,101841.22
2023-03-18T21:50:25.438Z,101845.69
2023-03-18T21:52:54.178Z,101837.47
2023-03-18T21:55:26.858Z,101841.88
2023-03-18T21:57:54.995Z,101841.47
2023-03-18T22:00:22.934Z,101832.44
2023-03-18T22:02:51.185Z,101837.50
2023-03-18T22:05:23.070Z,101829.31
2023-03-18T22:07:52.337Z,101839.56
2023-03-18T22:10:23.610Z,101836.44
2023-03-18T22:12:51.280Z,101829.53
2023-03-18T22:15:24.722Z,101827.78
2023-03-18T22:17:52.690Z,101835.94
2023-03-18T22:20:20.664Z,101832.88
2023-03-18T22:22:48.609Z,101818.88
2023-03-18T22:25:41.879Z,101813.72
2023-03-18T22:28:12.866Z,101820.38
2023-03-18T22:30:42.165Z,101823.38
2023-03-18T22:33:17.746Z,101818.78
2023-03-18T22:35:46.541Z,101812.84
2023-03-18T22:38:16.292Z,101814.91
2023-03-18T22:40:45.522Z,101821.97
2023-03-18T22:43:33.995Z,101805.91
2023-03-18T22:46:07.406Z,101816.22
2023-03-18T22:48:36.865Z,101807.84
2023-03-18T22:51:04.816Z,101809.88
2023-03-18T22:53:40.825Z,101805.34
2023-03-18T22:56:11.555Z,101815.31
2023-03-18T22:58:39.373Z,101807.91
2023-03-18T23:01:07.829Z,101804.53
2023-03-18T23:03:37.197Z,101802.41
2023-03-18T23:06:05.461Z,101803.53
2023-03-18T23:08:34.652Z,101796.00
2023-03-18T23:11:02.546Z,101801.81
2023-03-18T23:13:39.855Z,101802.63
2023-03-18T23:16:09.336Z,101797.97
2023-03-18T23:18:37.692Z,101796.78
2023-03-18T23:21:29.686Z,101797.19
2023-03-18T23:23:57.451Z,101791.69
2023-03-18T23:26:25.160Z,101790.59
2023-03-18T23:28:52.800Z,101789.66
2023-03-18T23:31:20.798Z,101781.16
2023-03-18T23:33:48.437Z,101784.53
2023-03-18T23:36:16.177Z,101786.16
2023-03-18T23:38:45.437Z,101787.34
2023-03-18T23:41:13.048Z,101784.31
2023-03-18T23:43:51.144Z,101773.03
2023-03-18T23:46:18.956Z,101778.53
2023-03-18T23:48:46.660Z,101777.78
2023-03-18T23:51:14.836Z,101774.78
2023-03-18T23:53:43.921Z,101785.56
2023-03-18T23:56:17.552Z,101766.88
2023-03-18T23:58:45.280Z,101767.38
